createdAt,value
2018-06-14T00:01:02.460Z,8.60
2018-06-14T00:03:05.553Z,9.73
2018-06-14T00:05:08.761Z,9.50
2018-06-14T00:07:11.836Z,9.70
2018-06-14T00:09:14.992Z,10.50
2018-06-14T00:11:18.068Z,9.60
2018-06-14T00:13:21.163Z,8.67
2018-06-14T00:15:24.239Z,8.97
2018-06-14T00:17:27.360Z,8.73
2018-06-14T00:19:30.424Z,9.13
2018-06-14T00:21:33.520Z,9.17
2018-06-14T00:23:36.610Z,9.67
2018-06-14T00:25:39.691Z,10.80
2018-06-14T00:27:42.776Z,11.13
2018-06-14T00:29:45.892Z,9.63
2018-06-14T00:31:48.975Z,10.60
2018-06-14T00:33:52.211Z,8.93
2018-06-14T00:35:55.308Z,9.33
2018-06-14T00:37:58.407Z,8.97
2018-06-14T00:40:01.488Z,9.70
2018-06-14T00:42:04.891Z,8.77
2018-06-14T00:44:08.048Z,9.70
2018-06-14T00:46:11.130Z,11.20
2018-06-14T00:48:14.253Z,10.80
2018-06-14T00:50:17.352Z,10.00
2018-06-14T00:52:20.529Z,10.70
2018-06-14T00:54:23.633Z,10.03
2018-06-14T00:56:26.740Z,10.40
2018-06-14T00:58:29.837Z,10.40
2018-06-14T01:00:32.968Z,9.70
2018-06-14T01:02:36.067Z,10.30
2018-06-14T01:04:39.169Z,9.83
2018-06-14T01:06:42.860Z,8.57
2018-06-14T01:08:45.952Z,10.17
2018-06-14T01:10:49.050Z,9.33
2018-06-14T01:12:52.132Z,10.30
2018-06-14T01:14:55.220Z,10.00
2018-06-14T01:16:58.087Z,10.50
2018-06-14T01:19:01.196Z,11.17
2018-06-14T01:21:04.288Z,9.87
2018-06-14T01:23:07.372Z,10.37
2018-06-14T01:25:10.488Z,11.50
2018-06-14T01:27:13.636Z,11.57
2018-06-14T01:29:16.725Z,11.87
2018-06-14T01:31:19.803Z,10.23
2018-06-14T01:33:22.904Z,10.63
2018-06-14T01:35:26.065Z,10.90
2018-06-14T01:37:40.726Z,11.40
2018-06-14T01:39:43.816Z,11.40
2018-06-14T01:41:46.904Z,12.80
2018-06-14T01:43:49.987Z,12.37
2018-06-14T01:45:53.087Z,14.00
2018-06-14T01:47:56.167Z,13.90
2018-06-14T01:49:59.876Z,14.43
2018-06-14T01:52:02.960Z,14.20
2018-06-14T01:54:06.072Z,14.07
2018-06-14T01:56:09.174Z,14.07
2018-06-14T01:58:12.280Z,14.63
2018-06-14T02:00:15.364Z,14.50
2018-06-14T02:02:18.475Z,13.90
2018-06-14T02:04:21.576Z,15.90
2018-06-14T02:06:24.663Z,14.43
2018-06-14T02:08:27.759Z,14.77
2018-06-14T02:10:30.866Z,16.30
2018-06-14T02:12:33.968Z,16.10
2018-06-14T02:14:37.074Z,14.83
2018-06-14T02:16:40.159Z,17.63
2018-06-14T02:18:43.248Z,15.63
2018-06-14T02:20:46.331Z,15.97
2018-06-14T02:22:49.415Z,18.23
2018-06-14T02:24:52.501Z,18.97
2018-06-14T02:26:55.599Z,18.07
2018-06-14T02:28:58.688Z,19.57
2018-06-14T02:31:01.793Z,20.60
2018-06-14T02:33:05.026Z,20.40
2018-06-14T02:35:08.122Z,20.83
2018-06-14T02:37:11.207Z,21.80
2018-06-14T02:39:14.320Z,22.37
2018-06-14T02:41:17.414Z,21.07
2018-06-14T02:43:20.736Z,22.80
2018-06-14T02:45:23.840Z,23.03
2018-06-14T02:47:26.926Z,21.33
2018-06-14T02:49:30.022Z,22.43
2018-06-14T02:51:33.104Z,22.97
2018-06-14T02:53:36.196Z,23.30
2018-06-14T02:55:39.296Z,23.80
2018-06-14T02:57:42.391Z,23.17
2018-06-14T02:59:45.504Z,23.77
2018-06-14T03:01:48.572Z,25.30
2018-06-14T03:03:51.736Z,24.07
2018-06-14T03:05:54.826Z,24.40
2018-06-14T03:07:57.911Z,22.93
2018-06-14T03:10:01.432Z,23.50
2018-06-14T03:12:04.532Z,22.77
2018-06-14T03:14:07.608Z,22.90
2018-06-14T03:16:10.705Z,22.50
2018-06-14T03:18:13.800Z,21.87
2018-06-14T03:20:21.105Z,23.10
2018-06-14T03:22:25.267Z,23.00
2018-06-14T03:24:28.344Z,22.70
2018-06-14T03:26:31.492Z,20.70
2018-06-14T03:28:34.592Z,20.43
2018-06-14T03:30:37.768Z,22.43
2018-06-14T03:32:40.853Z,19.00
2018-06-14T03:34:43.939Z,18.83
2018-06-14T03:36:47.036Z,18.43
2018-06-14T03:38:50.143Z,18.57
2018-06-14T03:40:53.344Z,20.13
2018-06-14T03:42:56.333Z,17.00
2018-06-14T03:44:59.445Z,17.53
2018-06-14T03:47:02.996Z,17.27
2018-06-14T03:49:06.124Z,17.50
2018-06-14T03:51:10.195Z,18.67
2018-06-14T03:53:13.316Z,17.57
2018-06-14T03:55:16.416Z,18.20
2018-06-14T03:57:20.071Z,15.77
2018-06-14T03:59:23.176Z,17.40
2018-06-14T04:01:26.272Z,18.63
2018-06-14T04:03:29.392Z,17.10
2018-06-14T04:05:32.484Z,15.47
2018-06-14T04:07:35.598Z,17.07
2018-06-14T04:09:38.713Z,15.30
2018-06-14T04:11:41.828Z,16.97
2018-06-14T04:13:44.944Z,17.07
2018-06-14T04:15:48.069Z,14.27
2018-06-14T04:17:59.142Z,16.20
2018-06-14T04:20:02.356Z,14.37
2018-06-14T04:22:05.500Z,14.53
2018-06-14T04:24:08.451Z,16.17
2018-06-14T04:26:11.576Z,14.93
2018-06-14T04:28:14.680Z,14.30
2018-06-14T04:30:17.787Z,14.60
2018-06-14T04:32:20.904Z,12.90
2018-06-14T04:34:25.083Z,14.77
2018-06-14T04:36:29.205Z,14.10
2018-06-14T04:38:32.321Z,15.80
2018-06-14T04:40:35.434Z,15.13
2018-06-14T04:42:39.436Z,14.90
2018-06-14T04:44:42.553Z,14.43
2018-06-14T04:46:45.655Z,15.00
2018-06-14T04:48:48.772Z,14.53
2018-06-14T04:50:51.876Z,14.57
2018-06-14T04:52:55.025Z,16.00
2018-06-14T04:54:58.148Z,14.47
2018-06-14T04:57:01.266Z,13.40
2018-06-14T04:59:04.739Z,14.77
2018-06-14T05:01:08.578Z,12.60
2018-06-14T05:03:11.771Z,11.37
2018-06-14T05:05:14.885Z,10.60
2018-06-14T05:07:17.987Z,10.47
2018-06-14T05:09:21.096Z,10.10
2018-06-14T05:11:24.293Z,8.73
2018-06-14T05:13:27.487Z,9.27
2018-06-14T05:15:30.592Z,9.07
2018-06-14T05:17:33.708Z,8.43
2018-06-14T05:19:36.652Z,8.40
2018-06-14T05:21:39.753Z,7.93
2018-06-14T05:23:42.884Z,8.70
2018-06-14T05:25:46.308Z,8.60
2018-06-14T05:27:49.400Z,8.60
2018-06-14T05:29:52.649Z,8.80
2018-06-14T05:31:55.739Z,8.70
2018-06-14T05:33:58.854Z,7.70
2018-06-14T05:36:02.029Z,6.73
2018-06-14T05:38:05.197Z,7.97
2018-06-14T05:40:08.263Z,8.27
2018-06-14T05:42:11.197Z,7.67
2018-06-14T05:44:14.316Z,6.53
2018-06-14T05:46:17.416Z,6.93
2018-06-14T05:48:20.445Z,6.70
2018-06-14T05:50:24.170Z,6.90
2018-06-14T05:52:27.334Z,7.47
2018-06-14T05:54:30.455Z,7.70
2018-06-14T05:56:33.561Z,7.83
2018-06-14T05:58:36.672Z,7.37
2018-06-14T06:00:39.804Z,6.90
2018-06-14T06:02:42.897Z,6.77
2018-06-14T06:04:46.046Z,6.00
2018-06-14T06:06:49.155Z,7.13
2018-06-14T06:08:52.293Z,6.77
2018-06-14T06:10:55.418Z,7.57
2018-06-14T06:12:58.532Z,7.33
2018-06-14T06:15:01.482Z,7.33
2018-06-14T06:17:04.723Z,7.47
2018-06-14T06:19:08.056Z,6.40
2018-06-14T06:21:11.244Z,6.50
2018-06-14T06:23:14.399Z,6.70
2018-06-14T06:25:17.538Z,6.83
2018-06-14T06:27:20.658Z,6.63
2018-06-14T06:29:23.759Z,7.30
2018-06-14T06:31:26.884Z,7.47
2018-06-14T06:33:30.138Z,7.60
2018-06-14T06:35:33.124Z,7.80
2018-06-14T06:37:36.228Z,6.87
2018-06-14T06:39:39.335Z,7.93
2018-06-14T06:41:42.456Z,7.07
2018-06-14T06:43:45.541Z,7.30
2018-06-14T06:45:48.640Z,7.57
2018-06-14T06:47:51.719Z,6.90
2018-06-14T06:49:54.808Z,6.80
2018-06-14T06:51:57.896Z,7.37
2018-06-14T06:54:00.997Z,7.57
2018-06-14T06:56:04.121Z,8.27
2018-06-14T06:58:07.238Z,7.33
2018-06-14T07:00:10.347Z,7.03
2018-06-14T07:02:13.624Z,7.70
2018-06-14T07:04:16.708Z,7.80
2018-06-14T07:06:19.960Z,9.07
2018-06-14T07:08:22.908Z,8.47
2018-06-14T07:10:26.013Z,9.03
2018-06-14T07:12:29.187Z,9.63
2018-06-14T07:14:32.290Z,11.13
2018-06-14T07:16:35.668Z,11.23
2018-06-14T07:18:38.780Z,9.97
2018-06-14T07:20:41.888Z,11.70
2018-06-14T07:22:44.988Z,10.53
2018-06-14T07:24:48.077Z,10.53
2018-06-14T07:26:51.165Z,10.77
2018-06-14T07:28:54.285Z,9.87
2018-06-14T07:30:57.384Z,11.17
2018-06-14T07:33:00.474Z,8.60
2018-06-14T07:35:03.572Z,10.90
2018-06-14T07:37:06.651Z,7.63
2018-06-14T07:39:11.324Z,10.67
2018-06-14T07:41:14.444Z,9.10
2018-06-14T07:43:17.692Z,8.67
2018-06-14T07:45:20.806Z,8.40
2018-06-14T07:47:23.912Z,8.87
2018-06-14T07:49:27.028Z,8.97
2018-06-14T07:51:30.460Z,9.73
2018-06-14T07:53:33.584Z,8.20
2018-06-14T07:55:36.917Z,8.70
2018-06-14T07:57:40.033Z,9.63
2018-06-14T07:59:43.148Z,10.00
2018-06-14T08:01:46.251Z,11.70
2018-06-14T08:03:49.507Z,10.13
2018-06-14T08:05:52.619Z,11.67
2018-06-14T08:07:55.724Z,12.07
2018-06-14T08:09:58.826Z,11.73
2018-06-14T08:12:01.940Z,13.07
2018-06-14T08:14:05.044Z,11.50
2018-06-14T08:16:08.279Z,12.00
2018-06-14T08:18:11.433Z,10.53
2018-06-14T08:20:14.540Z,10.00
2018-06-14T08:22:17.664Z,10.33
2018-06-14T08:24:20.831Z,9.93
2018-06-14T08:26:24.560Z,10.73
2018-06-14T08:28:27.679Z,10.40
2018-06-14T08:30:31.013Z,10.13
2018-06-14T08:32:34.179Z,10.30
2018-06-14T08:34:37.281Z,8.93
2018-06-14T08:36:40.396Z,9.50
2018-06-14T08:38:43.583Z,7.23
2018-06-14T08:40:46.693Z,7.90
2018-06-14T08:42:49.808Z,7.00
2018-06-14T08:44:53.046Z,8.47
2018-06-14T08:46:56.088Z,6.63
2018-06-14T08:48:59.187Z,6.43
2018-06-14T08:51:02.299Z,6.63
2018-06-14T08:53:05.388Z,6.40
2018-06-14T08:55:08.492Z,7.70
2018-06-14T08:57:11.596Z,7.00
2018-06-14T08:59:14.683Z,6.10
2018-06-14T09:01:17.809Z,7.17
2018-06-14T09:03:20.860Z,7.03
2018-06-14T09:05:23.936Z,7.23
2018-06-14T09:07:27.040Z,7.40
2018-06-14T09:09:30.136Z,6.40
2018-06-14T09:11:33.226Z,8.27
2018-06-14T09:13:36.325Z,8.73
2018-06-14T09:15:39.417Z,7.97
2018-06-14T09:17:42.508Z,7.37
2018-06-14T09:19:45.602Z,8.30
2018-06-14T09:21:48.684Z,8.67
2018-06-14T09:23:51.781Z,8.37
2018-06-14T09:25:54.864Z,7.20
2018-06-14T09:27:57.939Z,6.80
2018-06-14T09:30:01.089Z,8.43
2018-06-14T09:32:04.129Z,5.73
2018-06-14T09:34:07.312Z,7.17
2018-06-14T09:36:10.395Z,8.17
2018-06-14T09:38:13.481Z,7.20
2018-06-14T09:40:16.568Z,5.70
2018-06-14T09:42:19.663Z,7.50
2018-06-14T09:44:22.780Z,8.30
2018-06-14T09:46:25.864Z,8.47
2018-06-14T09:48:28.952Z,6.80
2018-06-14T09:50:32.047Z,6.60
2018-06-14T09:52:35.148Z,5.23
2018-06-14T09:54:38.239Z,6.27
2018-06-14T09:56:41.375Z,8.07
2018-06-14T09:58:44.499Z,6.50
2018-06-14T10:00:47.585Z,6.40
2018-06-14T10:02:50.543Z,5.80
2018-06-14T10:04:53.633Z,6.20
2018-06-14T10:06:56.732Z,5.77
2018-06-14T10:08:59.596Z,5.07
2018-06-14T10:11:02.701Z,6.17
2018-06-14T10:13:05.781Z,6.20
2018-06-14T10:15:08.679Z,4.63
2018-06-14T10:17:11.776Z,6.90
2018-06-14T10:19:14.868Z,5.00
2018-06-14T10:21:17.968Z,6.07
2018-06-14T10:23:21.068Z,6.40
2018-06-14T10:25:24.168Z,5.77
2018-06-14T10:27:27.249Z,5.53
2018-06-14T10:29:30.340Z,5.77
2018-06-14T10:31:33.455Z,7.13
2018-06-14T10:33:37.308Z,5.97
2018-06-14T10:35:40.413Z,5.47
2018-06-14T10:37:43.493Z,5.50
2018-06-14T10:39:47.120Z,5.10
2018-06-14T10:41:50.212Z,5.30
2018-06-14T10:43:53.341Z,5.00
2018-06-14T10:45:56.484Z,4.13
2018-06-14T10:47:59.616Z,5.37
2018-06-14T10:50:03.404Z,4.20
2018-06-14T10:52:06.484Z,5.53
2018-06-14T10:54:09.604Z,5.70
2018-06-14T10:56:12.729Z,5.67
2018-06-14T10:58:15.825Z,4.60
2018-06-14T11:00:18.972Z,5.17
2018-06-14T11:02:22.108Z,13.07
2018-06-14T11:04:25.208Z,4.80
2018-06-14T11:06:28.315Z,5.10
2018-06-14T11:08:31.432Z,4.53
2018-06-14T11:10:34.538Z,5.40
2018-06-14T11:12:37.653Z,4.50
2018-06-14T11:14:40.748Z,4.37
2018-06-14T11:16:43.853Z,5.70
2018-06-14T11:18:46.993Z,4.60
2018-06-14T11:20:50.168Z,5.40
2018-06-14T11:22:53.679Z,5.00
2018-06-14T11:24:59.333Z,5.30
2018-06-14T11:27:02.452Z,7.83
2018-06-14T11:29:05.609Z,5.83
2018-06-14T11:31:08.900Z,5.17
2018-06-14T11:33:12.033Z,6.30
2018-06-14T11:35:15.148Z,5.60
2018-06-14T11:37:18.259Z,5.70
2018-06-14T11:39:21.374Z,6.33
2018-06-14T11:41:24.520Z,5.10
2018-06-14T11:43:27.714Z,5.20
2018-06-14T11:45:30.784Z,5.47
2018-06-14T11:47:33.862Z,6.20
2018-06-14T11:49:36.935Z,9.17
2018-06-14T11:51:40.025Z,5.93
2018-06-14T11:53:43.116Z,4.00
2018-06-14T11:55:46.190Z,4.23
2018-06-14T11:57:49.274Z,4.37
2018-06-14T11:59:53.416Z,4.70
2018-06-14T12:01:56.500Z,4.27
2018-06-14T12:03:59.795Z,3.60
2018-06-14T12:06:02.945Z,3.80
2018-06-14T12:08:06.048Z,3.13
2018-06-14T12:10:10.089Z,3.50
2018-06-14T12:12:13.457Z,4.30
2018-06-14T12:14:16.770Z,3.60
2018-06-14T12:16:19.852Z,3.37
2018-06-14T12:18:22.921Z,4.50
2018-06-14T12:20:25.997Z,3.53
2018-06-14T12:22:29.076Z,5.03
2018-06-14T12:24:32.283Z,3.77
2018-06-14T12:26:35.375Z,4.83
2018-06-14T12:28:38.447Z,5.10
2018-06-14T12:30:41.520Z,4.67
2018-06-14T12:32:44.600Z,3.50
2018-06-14T12:34:47.676Z,3.40
2018-06-14T12:36:50.752Z,3.50
2018-06-14T12:38:53.860Z,4.20
2018-06-14T12:40:57.024Z,4.07
2018-06-14T12:43:00.107Z,3.47
2018-06-14T12:45:03.277Z,4.10
2018-06-14T12:47:06.391Z,4.87
2018-06-14T12:49:09.495Z,4.20
2018-06-14T12:51:12.609Z,3.80
2018-06-14T12:53:15.748Z,7.63
2018-06-14T12:55:18.857Z,3.80
2018-06-14T12:57:21.951Z,3.57
2018-06-14T12:59:25.061Z,3.33
2018-06-14T13:01:28.228Z,3.07
2018-06-14T13:03:31.352Z,4.00
2018-06-14T13:05:34.574Z,3.30
2018-06-14T13:07:37.660Z,3.80
2018-06-14T13:09:40.772Z,2.63
2018-06-14T13:11:43.868Z,3.30
2018-06-14T13:13:46.960Z,2.30
2018-06-14T13:15:50.063Z,2.97
2018-06-14T13:17:53.165Z,3.50
2018-06-14T13:19:56.278Z,3.10
2018-06-14T13:22:00.581Z,3.50
2018-06-14T13:24:03.684Z,3.00
2018-06-14T13:26:06.792Z,3.40
2018-06-14T13:28:10.016Z,3.00
2018-06-14T13:30:12.927Z,3.00
2018-06-14T13:32:16.103Z,2.90
2018-06-14T13:34:19.184Z,2.83
2018-06-14T13:36:22.288Z,4.60
2018-06-14T13:38:25.383Z,4.40
2018-06-14T13:40:28.476Z,3.20
2018-06-14T13:42:31.592Z,3.40
2018-06-14T13:44:34.696Z,3.60
2018-06-14T13:46:39.867Z,4.83
2018-06-14T13:48:42.992Z,2.87
2018-06-14T13:50:46.083Z,2.83
2018-06-14T13:52:49.820Z,3.80
2018-06-14T13:54:53.042Z,2.63
2018-06-14T13:56:56.390Z,2.77
2018-06-14T13:58:59.519Z,2.97
2018-06-14T14:01:02.747Z,3.00
2018-06-14T14:03:05.797Z,2.40
2018-06-14T14:05:08.909Z,3.17
2018-06-14T14:07:12.026Z,3.40
2018-06-14T14:09:15.233Z,3.00
2018-06-14T14:11:18.337Z,3.00
2018-06-14T14:13:21.451Z,3.10
2018-06-14T14:15:24.372Z,2.97
2018-06-14T14:17:27.494Z,3.33
2018-06-14T14:19:30.638Z,3.00
2018-06-14T14:21:33.744Z,4.33
2018-06-14T14:23:36.860Z,3.57
2018-06-14T14:25:40.076Z,3.30
2018-06-14T14:27:43.181Z,4.20
2018-06-14T14:29:46.284Z,3.40
2018-06-14T14:31:49.385Z,3.67
2018-06-14T14:33:52.511Z,3.67
2018-06-14T14:35:55.437Z,3.50
2018-06-14T14:37:58.728Z,4.13
2018-06-14T14:40:01.838Z,3.70
2018-06-14T14:42:04.712Z,3.83
2018-06-14T14:44:08.045Z,4.30
2018-06-14T14:46:11.140Z,4.03
2018-06-14T14:48:14.240Z,3.50
2018-06-14T14:50:17.373Z,5.20
2018-06-14T14:52:20.464Z,5.10
2018-06-14T14:54:23.584Z,4.30
2018-06-14T14:56:26.737Z,4.50
2018-06-14T14:58:29.684Z,5.60
2018-06-14T15:00:32.812Z,5.97
2018-06-14T15:02:36.660Z,5.90
2018-06-14T15:04:39.809Z,6.00
2018-06-14T15:06:43.002Z,7.50
2018-06-14T15:08:46.101Z,7.47
2018-06-14T15:10:49.208Z,6.80
2018-06-14T15:12:52.332Z,7.07
2018-06-14T15:14:55.426Z,8.10
2018-06-14T15:16:58.541Z,7.13
2018-06-14T15:19:01.649Z,7.37
2018-06-14T15:21:04.769Z,7.73
2018-06-14T15:23:07.887Z,7.60
2018-06-14T15:25:10.988Z,7.77
2018-06-14T15:27:14.083Z,7.50
2018-06-14T15:29:17.196Z,7.23
2018-06-14T15:31:20.321Z,9.00
2018-06-14T15:33:23.412Z,8.43
2018-06-14T15:35:26.540Z,9.27
2018-06-14T15:37:29.648Z,8.80
2018-06-14T15:39:33.004Z,10.30
2018-06-14T15:41:36.131Z,10.00
2018-06-14T15:43:39.347Z,11.07
2018-06-14T15:45:42.801Z,10.20
2018-06-14T15:47:45.950Z,9.83
2018-06-14T15:49:49.084Z,10.20
2018-06-14T15:51:52.200Z,10.80
2018-06-14T15:53:55.352Z,10.73
2018-06-14T15:56:49.697Z,10.40
2018-06-14T15:58:52.809Z,10.37
2018-06-14T16:00:56.184Z,10.27
2018-06-14T16:02:59.293Z,10.90
2018-06-14T16:05:02.411Z,10.90
2018-06-14T16:07:05.628Z,11.10
2018-06-14T16:09:09.947Z,12.07
2018-06-14T16:11:13.070Z,11.73
2018-06-14T16:13:16.214Z,11.63
2018-06-14T16:15:19.353Z,13.13
2018-06-14T16:17:22.472Z,11.63
2018-06-14T16:19:25.684Z,13.20
2018-06-14T16:21:28.836Z,12.20
2018-06-14T16:23:32.048Z,11.63
2018-06-14T16:25:35.163Z,11.27
2018-06-14T16:27:38.288Z,11.10
2018-06-14T16:29:41.411Z,11.60
2018-06-14T16:31:44.596Z,11.80
2018-06-14T16:33:47.697Z,11.30
2018-06-14T16:35:50.821Z,11.67
2018-06-14T16:37:53.968Z,11.13
2018-06-14T16:39:57.080Z,12.63
2018-06-14T16:42:00.204Z,12.47
2018-06-14T16:44:03.292Z,13.37
2018-06-14T16:46:06.657Z,12.83
2018-06-14T16:48:09.693Z,12.53
2018-06-14T16:50:12.789Z,12.50
2018-06-14T16:52:15.884Z,13.00
2018-06-14T16:54:19.247Z,13.73
2018-06-14T16:56:22.345Z,12.97
2018-06-14T16:58:25.432Z,13.17
2018-06-14T17:00:28.535Z,12.70
2018-06-14T17:02:31.616Z,13.83
2018-06-14T17:04:34.720Z,13.87
2018-06-14T17:06:37.972Z,13.17
2018-06-14T17:08:41.054Z,13.20
2018-06-14T17:10:44.208Z,12.50
2018-06-14T17:12:47.232Z,13.33
2018-06-14T17:14:50.324Z,14.87
2018-06-14T17:16:53.458Z,14.80
2018-06-14T17:18:56.530Z,14.30
2018-06-14T17:20:59.616Z,13.33
2018-06-14T17:23:02.772Z,15.17
2018-06-14T17:25:05.840Z,14.67
2018-06-14T17:27:08.925Z,14.27
2018-06-14T17:29:12.058Z,12.03
2018-06-14T17:31:15.120Z,14.60
2018-06-14T17:33:18.331Z,14.60
2018-06-14T17:35:21.383Z,13.03
2018-06-14T17:37:24.464Z,13.03
2018-06-14T17:39:27.940Z,12.03
2018-06-14T17:41:31.109Z,13.00
2018-06-14T17:43:34.180Z,12.47
2018-06-14T17:45:37.271Z,12.50
2018-06-14T17:47:40.401Z,14.60
2018-06-14T17:49:43.448Z,13.70
2018-06-14T17:51:46.552Z,11.90
2018-06-14T17:53:50.181Z,13.43
2018-06-14T17:55:53.284Z,12.30
2018-06-14T17:57:56.369Z,12.70
2018-06-14T18:00:00.059Z,13.03
2018-06-14T18:02:03.172Z,12.50
2018-06-14T18:04:06.391Z,13.03
2018-06-14T18:06:09.495Z,13.43
2018-06-14T18:08:12.608Z,12.80
2018-06-14T18:10:15.748Z,11.77
2018-06-14T18:12:18.828Z,12.60
2018-06-14T18:14:21.903Z,13.90
2018-06-14T18:16:25.054Z,13.40
2018-06-14T18:18:28.547Z,13.00
2018-06-14T18:20:31.696Z,14.17
2018-06-14T18:22:34.869Z,12.83
2018-06-14T18:24:37.947Z,12.70
2018-06-14T18:26:41.139Z,11.43
2018-06-14T18:28:44.220Z,12.53
2018-06-14T18:30:47.321Z,11.77
2018-06-14T18:32:50.438Z,10.70
2018-06-14T18:34:53.521Z,11.73
2018-06-14T18:36:56.456Z,11.87
2018-06-14T18:38:59.567Z,12.10
2018-06-14T18:41:02.648Z,11.03
2018-06-14T18:43:05.734Z,11.17
2018-06-14T18:45:08.854Z,11.63
2018-06-14T18:47:11.923Z,12.03
2018-06-14T18:49:15.013Z,12.07
2018-06-14T18:51:18.116Z,11.87
2018-06-14T18:53:21.220Z,11.67
2018-06-14T18:55:24.396Z,11.83
2018-06-14T18:57:27.600Z,12.37
2018-06-14T18:59:30.773Z,12.00
2018-06-14T19:01:33.868Z,12.83
2018-06-14T19:03:36.960Z,13.20
2018-06-14T19:05:40.048Z,12.30
2018-06-14T19:07:43.136Z,12.93
2018-06-14T19:09:46.407Z,15.70
2018-06-14T19:11:49.573Z,14.70
2018-06-14T19:13:52.735Z,13.83
2018-06-14T19:15:55.816Z,15.77
2018-06-14T19:17:58.932Z,14.60
2018-06-14T19:20:02.029Z,15.47
2018-06-14T19:22:05.199Z,14.87
2018-06-14T19:24:08.282Z,16.40
2018-06-14T19:26:11.490Z,16.57
2018-06-14T19:28:14.607Z,15.90
2018-06-14T19:30:17.845Z,16.67
2018-06-14T19:32:20.936Z,15.00
2018-06-14T19:34:24.032Z,17.37
2018-06-14T19:36:27.184Z,17.03
2018-06-14T19:38:30.410Z,15.60
2018-06-14T19:40:33.512Z,17.20
2018-06-14T19:42:36.624Z,17.90
2018-06-14T19:44:39.743Z,17.53
2018-06-14T19:46:42.860Z,18.27
2018-06-14T19:48:45.976Z,18.43
2018-06-14T19:50:49.117Z,17.70
2018-06-14T19:52:52.232Z,17.03
2018-06-14T19:54:55.388Z,18.00
2018-06-14T19:56:58.492Z,17.40
2018-06-14T19:59:01.620Z,19.07
2018-06-14T20:01:04.812Z,18.30
2018-06-14T20:03:07.883Z,19.10
2018-06-14T20:05:11.008Z,17.63
2018-06-14T20:07:14.123Z,17.37
2018-06-14T20:09:17.255Z,17.53
2018-06-14T20:11:20.376Z,19.13
2018-06-14T20:13:23.485Z,20.90
2018-06-14T20:15:26.660Z,21.43
2018-06-14T20:17:29.828Z,22.03
2018-06-14T20:19:32.972Z,21.70
2018-06-14T20:21:36.096Z,24.03
2018-06-14T20:23:39.222Z,23.63
2018-06-14T20:25:42.380Z,21.90
2018-06-14T20:27:45.497Z,20.87
2018-06-14T20:29:48.620Z,21.13
2018-06-14T20:31:51.747Z,21.53
2018-06-14T20:33:54.954Z,23.33
2018-06-14T20:35:58.140Z,25.37
2018-06-14T20:38:01.293Z,24.30
2018-06-14T20:40:04.411Z,28.57
2018-06-14T20:42:08.422Z,24.93
2018-06-14T20:44:11.450Z,25.93
2018-06-14T20:46:14.539Z,25.80
2018-06-14T20:48:17.726Z,25.70
2018-06-14T20:50:20.820Z,27.20
2018-06-14T20:52:23.918Z,27.33
2018-06-14T20:54:27.112Z,28.23
2018-06-14T20:56:30.212Z,29.60
2018-06-14T20:58:33.292Z,30.47
2018-06-14T21:00:36.423Z,30.27
2018-06-14T21:02:39.528Z,29.33
2018-06-14T21:04:42.604Z,31.07
2018-06-14T21:06:45.680Z,33.03
2018-06-14T21:08:48.755Z,30.10
2018-06-14T21:10:51.695Z,32.83
2018-06-14T21:12:54.888Z,32.53
2018-06-14T21:14:57.992Z,33.03
2018-06-14T21:17:01.074Z,32.53
2018-06-14T21:19:04.198Z,31.40
2018-06-14T21:21:07.308Z,35.73
2018-06-14T21:23:10.396Z,36.23
2018-06-14T21:25:13.591Z,38.60
2018-06-14T21:27:16.741Z,39.33
2018-06-14T21:29:20.435Z,38.50
2018-06-14T21:31:23.512Z,41.90
2018-06-14T21:33:26.588Z,39.80
2018-06-14T21:35:29.671Z,37.90
2018-06-14T21:37:32.760Z,35.20
2018-06-14T21:39:35.865Z,32.67
2018-06-14T21:41:38.968Z,34.40
2018-06-14T21:43:42.065Z,32.77
2018-06-14T21:45:45.152Z,31.00
2018-06-14T21:47:48.228Z,28.93
2018-06-14T21:49:51.316Z,30.80
2018-06-14T21:51:54.396Z,30.03
2018-06-14T21:53:57.560Z,31.40
2018-06-14T21:56:00.661Z,31.10
2018-06-14T21:58:03.732Z,28.30
2018-06-14T22:00:07.360Z,29.23
2018-06-14T22:02:10.457Z,26.50
2018-06-14T22:04:13.541Z,28.23
2018-06-14T22:06:16.620Z,28.80
2018-06-14T22:08:19.701Z,28.27
2018-06-14T22:10:22.789Z,27.80
2018-06-14T22:12:25.896Z,24.87
2018-06-14T22:14:28.977Z,27.83
2018-06-14T22:16:32.908Z,27.30
2018-06-14T22:18:36.014Z,27.30
2018-06-14T22:20:39.137Z,28.57
2018-06-14T22:22:42.224Z,25.93
2018-06-14T22:24:45.320Z,27.33
2018-06-14T22:26:48.404Z,29.43
2018-06-14T22:28:51.480Z,28.80
2018-06-14T22:30:54.563Z,28.67
2018-06-14T22:33:09.224Z,27.57
2018-06-14T22:35:20.655Z,28.57
2018-06-14T22:37:23.745Z,29.40
2018-06-14T22:39:26.816Z,28.53
2018-06-14T22:41:29.909Z,28.73
2018-06-14T22:43:33.004Z,30.87
2018-06-14T22:45:36.112Z,29.80
2018-06-14T22:47:39.265Z,29.67
2018-06-14T22:49:42.372Z,29.77
2018-06-14T22:52:11.492Z,31.97
2018-06-14T22:54:14.596Z,31.67
2018-06-14T22:56:17.693Z,33.20
2018-06-14T22:58:20.804Z,33.10
2018-06-14T23:00:37.952Z,34.70
2018-06-14T23:02:41.068Z,35.30
2018-06-14T23:04:44.165Z,34.40
2018-06-14T23:06:47.407Z,33.40
2018-06-14T23:08:50.704Z,33.50
2018-06-14T23:11:05.180Z,32.83
2018-06-14T23:13:09.475Z,34.47
2018-06-14T23:15:12.956Z,33.80
2018-06-14T23:17:16.060Z,32.20
2018-06-14T23:19:19.169Z,32.67
2018-06-14T23:21:22.299Z,35.20
2018-06-14T23:23:25.410Z,37.80
2018-06-14T23:25:29.196Z,33.73
2018-06-14T23:27:32.336Z,33.60
2018-06-14T23:29:35.436Z,32.40
2018-06-14T23:31:38.548Z,31.20
2018-06-14T23:33:41.660Z,30.47
2018-06-14T23:35:44.760Z,32.70
2018-06-14T23:37:48.084Z,30.80
2018-06-14T23:39:51.225Z,30.93
2018-06-14T23:41:54.326Z,30.93
2018-06-14T23:43:57.440Z,29.90
2018-06-14T23:46:00.508Z,32.03
2018-06-14T23:48:04.498Z,30.80
2018-06-14T23:50:07.556Z,30.67
2018-06-14T23:52:10.656Z,30.50
2018-06-14T23:54:13.721Z,32.20
2018-06-14T23:56:16.878Z,30.13
2018-06-14T23:58:19.944Z,32.20
